La rose des vents
Donnes mto: Semaine 07/07/08 - 13/07/08 (S 28)
Date Horaire Temp. E. Hum. E. P.atmo. Pluie Vent 1mn Direction Ensoleilleme Ev.Tr. Solaire P. de rose Temp au vent Rafales
07/07/2008 00:00 20,5 C 89 % 1008,2 hPa 0,0 l/m 1,8 km/h (1 Bft) NO 0,00 h 0,025 mm 0 W/m 18,7 C 20,5 C 3,1 km/h (1 Bft)
07/07/2008 01:00 20,0 C 91 % 1007,9 hPa 0,0 l/m 0,8 km/h (0 Bft) NO 0,00 h 0,025 mm 0 W/m 18,4 C 20,0 C 1,9 km/h (1 Bft)
07/07/2008 02:00 19,8 C 91 % 1007,8 hPa 0,0 l/m 2,1 km/h (1 Bft) NO 0,00 h 0,025 mm 0 W/m 18,3 C 19,8 C 3,7 km/h (1 Bft)
07/07/2008 03:00 19,3 C 92 % 1007,4 hPa 0,0 l/m 2,6 km/h (1 Bft) NO 0,00 h 0,025 mm 0 W/m 18,0 C 19,3 C 4,8 km/h (1 Bft)
07/07/2008 04:00 19,2 C 92 % 1007,2 hPa 0,0 l/m 4,6 km/h (1 Bft) NO 0,00 h 0,025 mm 0 W/m 17,9 C 19,2 C 5,8 km/h (2 Bft)
07/07/2008 05:00 19,1 C 90 % 1007,2 hPa 0,0 l/m 5,2 km/h (1 Bft) NO 0,00 h 0,025 mm 9 W/m 17,4 C 19,1 C 6,7 km/h (2 Bft)
07/07/2008 06:00 19,8 C 84 % 1007,3 hPa 0,0 l/m 7,3 km/h (2 Bft) O 0,35 h 0,025 mm 24 W/m 17,0 C 19,8 C 9,5 km/h (2 Bft)
07/07/2008 07:00 18,3 C 88 % 1008,0 hPa 2,2 l/m 11,4 km/h (2 Bft) NO 0,00 h 0,025 mm 35 W/m 16,2 C 18,3 C 16,6 km/h (3 Bft)
07/07/2008 08:00 18,5 C 90 % 1006,8 hPa 0,0 l/m 4,6 km/h (1 Bft) SO 0,65 h 0,051 mm 276 W/m 16,8 C 18,5 C 6,9 km/h (2 Bft)
07/07/2008 09:00 21,8 C 79 % 1007,3 hPa 0,0 l/m 10,5 km/h (2 Bft) SO 1,00 h 0,178 mm 507 W/m 18,0 C 21,8 C 14,8 km/h (3 Bft)
07/07/2008 10:00 23,5 C 68 % 1007,7 hPa 0,0 l/m 11,6 km/h (2 Bft) S-SO 0,37 h 0,330 mm 385 W/m 17,2 C 23,5 C 16,2 km/h (3 Bft)
07/07/2008 11:00 23,4 C 72 % 1007,8 hPa 0,2 l/m 5,6 km/h (1 Bft) S 0,15 h 0,305 mm 359 W/m 18,1 C 23,4 C 9,1 km/h (2 Bft)
07/07/2008 12:00 24,5 C 74 % 1008,1 hPa 0,0 l/m 9,8 km/h (2 Bft) S-SO 0,20 h 0,279 mm 408 W/m 19,5 C 24,5 C 14,3 km/h (3 Bft)
07/07/2008 13:00 25,7 C 72 % 1008,0 hPa 0,0 l/m 15,1 km/h (3 Bft) S-SO 0,83 h 0,330 mm 811 W/m 20,1 C 25,7 C 20,7 km/h (4 Bft)
07/07/2008 14:00 27,4 C 65 % 1007,4 hPa 0,0 l/m 15,1 km/h (3 Bft) S 0,78 h 0,584 mm 769 W/m 20,3 C 27,4 C 20,8 km/h (4 Bft)
07/07/2008 15:00 28,4 C 58 % 1006,9 hPa 0,0 l/m 14,5 km/h (3 Bft) S-SE 1,00 h 0,610 mm 792 W/m 19,2 C 28,4 C 20,5 km/h (4 Bft)
07/07/2008 16:00 30,1 C 39 % 1006,1 hPa 0,0 l/m 21,8 km/h (4 Bft) SO 1,00 h 0,635 mm 694 W/m 14,7 C 30,1 C 29,3 km/h (5 Bft)
07/07/2008 17:00 29,9 C 34 % 1005,7 hPa 0,0 l/m 29,6 km/h (5 Bft) SO 1,00 h 0,711 mm 550 W/m 12,5 C 29,9 C 39,0 km/h (6 Bft)
07/07/2008 18:00 29,5 C 32 % 1005,3 hPa 0,0 l/m 31,0 km/h (5 Bft) SO 1,00 h 0,711 mm 386 W/m 11,2 C 29,5 C 39,7 km/h (6 Bft)
07/07/2008 19:00 28,7 C 32 % 1005,5 hPa 0,0 l/m 24,3 km/h (4 Bft) SO 1,00 h 0,610 mm 220 W/m 10,4 C 28,7 C 32,0 km/h (5 Bft)
07/07/2008 20:00 27,1 C 34 % 1005,9 hPa 0,0 l/m 19,9 km/h (4 Bft) O-SO 0,07 h 0,432 mm 34 W/m 9,9 C 27,1 C 26,7 km/h (4 Bft)
07/07/2008 21:00 25,3 C 36 % 1006,1 hPa 0,0 l/m 24,6 km/h (4 Bft) O-SO 0,02 h 0,254 mm 7 W/m 9,4 C 25,3 C 32,8 km/h (5 Bft)
07/07/2008 22:00 24,1 C 40 % 1006,6 hPa 0,0 l/m 25,0 km/h (4 Bft) O-SO 0,00 h 0,254 mm 0 W/m 9,5 C 24,1 C 32,5 km/h (5 Bft)
07/07/2008 23:00 23,1 C 39 % 1007,0 hPa 0,0 l/m 17,0 km/h (3 Bft) SO 0,00 h 0,229 mm 0 W/m 8,6 C 23,1 C 22,8 km/h (4 Bft)
08/07/2008 00:00 22,0 C 41 % 1007,2 hPa 0,0 l/m 18,4 km/h (3 Bft) SO 0,00 h 0,178 mm 0 W/m 8,3 C 22,0 C 24,8 km/h (4 Bft)
08/07/2008 01:00 20,9 C 42 % 1007,2 hPa 0,0 l/m 14,5 km/h (3 Bft) O-SO 0,00 h 0,178 mm 0 W/m 7,5 C 20,9 C 21,5 km/h (4 Bft)
08/07/2008 02:00 20,4 C 39 % 1007,3 hPa 0,0 l/m 8,1 km/h (2 Bft) E-NE 0,00 h 0,152 mm 0 W/m 6,0 C 20,4 C 12,3 km/h (3 Bft)
08/07/2008 03:00 19,4 C 39 % 1007,3 hPa 0,0 l/m 3,8 km/h (1 Bft) S-SO 0,00 h 0,102 mm 0 W/m 5,2 C 19,4 C 5,8 km/h (2 Bft)
08/07/2008 04:00 19,0 C 38 % 1007,0 hPa 0,0 l/m 6,4 km/h (2 Bft) SE 0,00 h 0,076 mm 0 W/m 4,4 C 19,0 C 9,7 km/h (2 Bft)
08/07/2008 05:00 18,8 C 38 % 1007,1 hPa 0,0 l/m 11,6 km/h (2 Bft) O-SO 0,00 h 0,102 mm 5 W/m 4,1 C 18,8 C 16,8 km/h (3 Bft)
08/07/2008 06:00 18,8 C 42 % 1007,6 hPa 0,0 l/m 9,1 km/h (2 Bft) O 0,03 h 0,102 mm 17 W/m 5,4 C 18,8 C 14,3 km/h (3 Bft)
08/07/2008 07:00 19,3 C 43 % 1008,0 hPa 0,0 l/m 12,4 km/h (3 Bft) O-SO 0,28 h 0,102 mm 99 W/m 6,4 C 19,3 C 17,7 km/h (3 Bft)
08/07/2008 08:00 21,2 C 42 % 1008,5 hPa 0,0 l/m 5,1 km/h (1 Bft) O 1,00 h 0,178 mm 360 W/m 7,8 C 21,2 C 8,5 km/h (2 Bft)
08/07/2008 09:00 23,8 C 34 % 1009,0 hPa 0,0 l/m 2,3 km/h (1 Bft) NE 1,00 h 0,254 mm 538 W/m 7,0 C 23,8 C 4,6 km/h (1 Bft)
08/07/2008 10:00 26,4 C 28 % 1009,2 hPa 0,0 l/m 5,1 km/h (1 Bft) NE 1,00 h 0,356 mm 693 W/m 6,3 C 26,4 C 8,3 km/h (2 Bft)
08/07/2008 11:00 27,4 C 40 % 1009,5 hPa 0,0 l/m 9,4 km/h (2 Bft) E 1,00 h 0,508 mm 804 W/m 12,2 C 27,4 C 14,9 km/h (3 Bft)
08/07/2008 12:00 27,1 C 52 % 1009,9 hPa 0,0 l/m 12,8 km/h (3 Bft) E 1,00 h 0,610 mm 880 W/m 16,4 C 27,1 C 19,6 km/h (3 Bft)
08/07/2008 13:00 28,2 C 48 % 1010,2 hPa 0,0 l/m 11,0 km/h (2 Bft) E 1,00 h 0,660 mm 911 W/m 15,9 C 28,2 C 17,9 km/h (3 Bft)
08/07/2008 14:00 29,0 C 42 % 1010,3 hPa 0,0 l/m 10,8 km/h (2 Bft) E 1,00 h 0,686 mm 893 W/m 14,7 C 29,0 C 16,9 km/h (3 Bft)
08/07/2008 15:00 28,9 C 37 % 1010,2 hPa 0,0 l/m 9,3 km/h (2 Bft) E 1,00 h 0,711 mm 821 W/m 12,6 C 28,9 C 15,4 km/h (3 Bft)
08/07/2008 16:00 28,3 C 40 % 1010,2 hPa 0,0 l/m 7,7 km/h (2 Bft) E 1,00 h 0,635 mm 707 W/m 13,2 C 28,3 C 13,5 km/h (3 Bft)
08/07/2008 17:00 27,6 C 49 % 1010,1 hPa 0,0 l/m 3,7 km/h (1 Bft) E-SE 1,00 h 0,533 mm 563 W/m 15,7 C 27,6 C 8,0 km/h (2 Bft)
08/07/2008 18:00 26,1 C 51 % 1010,0 hPa 0,0 l/m 4,9 km/h (1 Bft) E 1,00 h 0,406 mm 395 W/m 15,2 C 26,1 C 9,3 km/h (2 Bft)
08/07/2008 19:00 24,7 C 54 % 1010,4 hPa 0,0 l/m 3,5 km/h (1 Bft) E-SE 1,00 h 0,305 mm 218 W/m 14,9 C 24,7 C 6,1 km/h (2 Bft)
08/07/2008 20:00 22,9 C 60 % 1010,6 hPa 0,0 l/m 2,0 km/h (1 Bft) S-SO 0,05 h 0,178 mm 34 W/m 14,8 C 22,9 C 3,8 km/h (1 Bft)
08/07/2008 21:00 21,2 C 69 % 1011,1 hPa 0,0 l/m 3,0 km/h (1 Bft) S 0,03 h 0,051 mm 8 W/m 15,3 C 21,2 C 4,9 km/h (1 Bft)
08/07/2008 22:00 20,5 C 76 % 1011,6 hPa 0,0 l/m 4,5 km/h (1 Bft) S 0,00 h 0,025 mm 0 W/m 16,2 C 20,5 C 6,2 km/h (2 Bft)
08/07/2008 23:00 19,5 C 84 % 1012,2 hPa 0,0 l/m 2,9 km/h (1 Bft) S 0,00 h 0,051 mm 0 W/m 16,6 C 19,5 C 4,2 km/h (1 Bft)
09/07/2008 00:00 19,0 C 87 % 1012,5 hPa 0,0 l/m 3,6 km/h (1 Bft) S 0,00 h 0,025 mm 0 W/m 16,7 C 19,0 C 4,8 km/h (1 Bft)
09/07/2008 01:00 18,3 C 87 % 1012,5 hPa 0,0 l/m 6,1 km/h (2 Bft) O-NO 0,00 h 0,025 mm 0 W/m 16,2 C 18,3 C 7,9 km/h (2 Bft)
09/07/2008 02:00 18,9 C 86 % 1012,5 hPa 0,0 l/m 3,9 km/h (1 Bft) O 0,00 h 0,025 mm 0 W/m 16,4 C 18,9 C 5,3 km/h (1 Bft)
09/07/2008 03:00 18,6 C 85 % 1012,6 hPa 0,0 l/m 4,2 km/h (1 Bft) O 0,00 h 0,025 mm 0 W/m 16,0 C 18,6 C 5,6 km/h (1 Bft)
09/07/2008 04:00 18,0 C 82 % 1012,4 hPa 0,0 l/m 3,3 km/h (1 Bft) O 0,00 h 0,025 mm 0 W/m 15,0 C 18,0 C 4,5 km/h (1 Bft)
09/07/2008 05:00 17,9 C 82 % 1012,7 hPa 0,0 l/m 3,3 km/h (1 Bft) O 0,00 h 0,025 mm 0 W/m 14,8 C 17,9 C 4,8 km/h (1 Bft)
09/07/2008 06:00 17,9 C 82 % 1013,2 hPa 0,0 l/m 2,9 km/h (1 Bft) O 0,00 h 0,025 mm 25 W/m 14,7 C 17,9 C 4,9 km/h (1 Bft)
09/07/2008 07:00 18,9 C 80 % 1013,6 hPa 0,0 l/m 0,8 km/h (0 Bft) O 0,03 h 0,025 mm 95 W/m 15,4 C 18,9 C 2,2 km/h (1 Bft)
09/07/2008 08:00 20,9 C 77 % 1014,1 hPa 0,0 l/m 1,6 km/h (1 Bft) O 0,82 h 0,051 mm 339 W/m 16,8 C 20,9 C 3,1 km/h (1 Bft)
09/07/2008 09:00 22,6 C 72 % 1014,3 hPa 0,0 l/m 5,4 km/h (1 Bft) S 0,87 h 0,203 mm 505 W/m 17,3 C 22,6 C 8,1 km/h (2 Bft)
09/07/2008 10:00 24,2 C 65 % 1014,2 hPa 0,0 l/m 6,1 km/h (2 Bft) E 0,63 h 0,330 mm 510 W/m 17,2 C 24,2 C 9,0 km/h (2 Bft)
09/07/2008 11:00 24,7 C 63 % 1014,3 hPa 0,0 l/m 9,7 km/h (2 Bft) S 0,83 h 0,356 mm 794 W/m 17,2 C 24,7 C 15,5 km/h (3 Bft)
09/07/2008 12:00 25,1 C 62 % 1014,3 hPa 0,0 l/m 12,0 km/h (2 Bft) S 0,78 h 0,533 mm 789 W/m 17,2 C 25,1 C 17,4 km/h (3 Bft)
09/07/2008 13:00 25,6 C 59 % 1014,2 hPa 0,0 l/m 9,5 km/h (2 Bft) S-SE 0,75 h 0,559 mm 702 W/m 17,1 C 25,6 C 16,1 km/h (3 Bft)
09/07/2008 14:00 25,5 C 59 % 1014,0 hPa 0,0 l/m 10,7 km/h (2 Bft) S-SE 0,72 h 0,533 mm 811 W/m 16,9 C 25,5 C 16,5 km/h (3 Bft)
09/07/2008 15:00 26,0 C 58 % 1013,9 hPa 0,0 l/m 12,2 km/h (2 Bft) S 1,00 h 0,584 mm 852 W/m 17,0 C 26,0 C 18,2 km/h (3 Bft)
09/07/2008 16:00 25,4 C 61 % 1014,1 hPa 0,0 l/m 10,8 km/h (2 Bft) S 0,93 h 0,610 mm 690 W/m 17,4 C 25,4 C 16,4 km/h (3 Bft)
09/07/2008 17:00 24,8 C 63 % 1013,9 hPa 0,0 l/m 9,1 km/h (2 Bft) S-SE 1,00 h 0,508 mm 563 W/m 17,2 C 24,8 C 14,2 km/h (3 Bft)
09/07/2008 18:00 24,8 C 64 % 1013,5 hPa 0,0 l/m 7,5 km/h (2 Bft) E 0,87 h 0,406 mm 376 W/m 17,5 C 24,8 C 11,1 km/h (2 Bft)
09/07/2008 19:00 23,9 C 65 % 1013,5 hPa 0,0 l/m 3,0 km/h (1 Bft) E 1,00 h 0,279 mm 200 W/m 17,0 C 23,9 C 5,4 km/h (1 Bft)
09/07/2008 20:00 22,3 C 70 % 1013,5 hPa 0,0 l/m 0,3 km/h (0 Bft) E 0,03 h 0,152 mm 36 W/m 16,5 C 22,3 C 1,3 km/h (1 Bft)
09/07/2008 21:00 20,3 C 77 % 1013,5 hPa 0,0 l/m 1,2 km/h (1 Bft) E 0,03 h 0,025 mm 7 W/m 16,0 C 20,3 C 2,5 km/h (1 Bft)
09/07/2008 22:00 19,3 C 81 % 1013,7 hPa 0,0 l/m 0,0 km/h (0 Bft) E 0,00 h 0,025 mm 0 W/m 15,9 C 19,3 C 0,1 km/h (0 Bft)
09/07/2008 23:00 19,0 C 83 % 1014,0 hPa 0,0 l/m 2,2 km/h (1 Bft) E 0,00 h 0,025 mm 0 W/m 16,1 C 19,0 C 3,5 km/h (1 Bft)
10/07/2008 00:00 18,5 C 85 % 1014,1 hPa 0,0 l/m 2,4 km/h (1 Bft) E 0,00 h 0,025 mm 0 W/m 16,0 C 18,5 C 3,8 km/h (1 Bft)
10/07/2008 01:00 18,4 C 86 % 1014,0 hPa 0,0 l/m 0,8 km/h (0 Bft) E 0,00 h 0,025 mm 0 W/m 16,0 C 18,4 C 1,4 km/h (1 Bft)
10/07/2008 02:00 18,1 C 87 % 1013,8 hPa 0,0 l/m 1,6 km/h (1 Bft) E 0,00 h 0,025 mm 0 W/m 15,9 C 18,1 C 2,5 km/h (1 Bft)
10/07/2008 03:00 17,9 C 87 % 1013,7 hPa 0,0 l/m 1,4 km/h (1 Bft) E 0,00 h 0,025 mm 0 W/m 15,7 C 17,9 C 2,5 km/h (1 Bft)
10/07/2008 04:00 17,6 C 87 % 1013,6 hPa 0,0 l/m 2,9 km/h (1 Bft) E 0,00 h 0,025 mm 0 W/m 15,4 C 17,6 C 4,1 km/h (1 Bft)
10/07/2008 05:00 17,6 C 87 % 1013,7 hPa 0,0 l/m 5,2 km/h (1 Bft) O 0,00 h 0,025 mm 6 W/m 15,4 C 17,6 C 6,5 km/h (2 Bft)
10/07/2008 06:00 17,5 C 83 % 1014,0 hPa 0,0 l/m 3,5 km/h (1 Bft) O-NO 0,13 h 0,025 mm 24 W/m 14,5 C 17,5 C 4,9 km/h (1 Bft)
10/07/2008 07:00 18,1 C 80 % 1014,4 hPa 0,0 l/m 2,7 km/h (1 Bft) O-NO 0,27 h 0,025 mm 90 W/m 14,7 C 18,1 C 4,2 km/h (1 Bft)
10/07/2008 08:00 21,7 C 75 % 1014,7 hPa 0,0 l/m 1,8 km/h (1 Bft) N-NO 1,00 h 0,076 mm 331 W/m 17,1 C 21,7 C 3,8 km/h (1 Bft)
10/07/2008 09:00 24,0 C 66 % 1014,7 hPa 0,0 l/m 3,5 km/h (1 Bft) E-NE 1,00 h 0,203 mm 508 W/m 17,1 C 24,0 C 6,3 km/h (2 Bft)
10/07/2008 10:00 25,2 C 66 % 1014,4 hPa 0,0 l/m 6,4 km/h (2 Bft) E 1,00 h 0,330 mm 674 W/m 18,2 C 25,2 C 10,0 km/h (2 Bft)
10/07/2008 11:00 26,3 C 63 % 1014,5 hPa 0,0 l/m 8,3 km/h (2 Bft) E 1,00 h 0,457 mm 779 W/m 18,8 C 26,3 C 13,4 km/h (3 Bft)
10/07/2008 12:00 26,9 C 62 % 1014,6 hPa 0,0 l/m 11,0 km/h (2 Bft) E 1,00 h 0,559 mm 855 W/m 18,9 C 26,9 C 16,8 km/h (3 Bft)
10/07/2008 13:00 26,8 C 64 % 1014,5 hPa 0,0 l/m 11,3 km/h (2 Bft) E 0,97 h 0,610 mm 904 W/m 19,4 C 26,8 C 17,1 km/h (3 Bft)
10/07/2008 14:00 26,6 C 66 % 1014,5 hPa 0,0 l/m 11,9 km/h (2 Bft) E 0,67 h 0,635 mm 708 W/m 19,6 C 26,6 C 17,7 km/h (3 Bft)
10/07/2008 15:00 26,5 C 66 % 1014,3 hPa 0,0 l/m 11,3 km/h (2 Bft) E 0,87 h 0,533 mm 811 W/m 19,7 C 26,5 C 16,8 km/h (3 Bft)
10/07/2008 16:00 25,0 C 72 % 1014,1 hPa 0,0 l/m 7,4 km/h (2 Bft) E 0,27 h 0,559 mm 362 W/m 19,6 C 25,0 C 11,7 km/h (2 Bft)
10/07/2008 17:00 25,2 C 70 % 1013,8 hPa 0,0 l/m 5,5 km/h (1 Bft) S 0,50 h 0,254 mm 428 W/m 19,4 C 25,2 C 9,9 km/h (2 Bft)
10/07/2008 18:00 24,3 C 73 % 1013,3 hPa 0,0 l/m 6,1 km/h (2 Bft) E 0,08 h 0,305 mm 148 W/m 19,2 C 24,3 C 8,8 km/h (2 Bft)
10/07/2008 19:00 23,1 C 77 % 1013,1 hPa 0,0 l/m 3,5 km/h (1 Bft) E 0,05 h 0,127 mm 84 W/m 18,9 C 23,1 C 5,6 km/h (1 Bft)
10/07/2008 20:00 22,0 C 80 % 1013,0 hPa 0,0 l/m 0,3 km/h (0 Bft) E 0,18 h 0,076 mm 33 W/m 18,4 C 22,0 C 1,1 km/h (1 Bft)
10/07/2008 21:00 21,2 C 83 % 1013,4 hPa 0,0 l/m 0,7 km/h (0 Bft) E 0,07 h 0,025 mm 9 W/m 18,2 C 21,2 C 1,4 km/h (1 Bft)
10/07/2008 22:00 20,6 C 87 % 1014,0 hPa 0,0 l/m 0,0 km/h (0 Bft) E 0,00 h 0,000 mm 0 W/m 18,2 C 20,6 C 0,1 km/h (0 Bft)
10/07/2008 23:00 19,8 C 88 % 1013,6 hPa 0,0 l/m 0,0 km/h (0 Bft) N 0,00 h 0,025 mm 0 W/m 17,6 C 19,8 C 0,1 km/h (0 Bft)
11/07/2008 00:00 19,5 C 89 % 1014,0 hPa 0,0 l/m 2,1 km/h (1 Bft) E 0,00 h 0,025 mm 0 W/m 17,6 C 19,5 C 3,7 km/h (1 Bft)
11/07/2008 01:00 19,0 C 90 % 1013,5 hPa 0,0 l/m 1,0 km/h (0 Bft) NE 0,00 h 0,025 mm 0 W/m 17,4 C 19,0 C 2,0 km/h (1 Bft)
11/07/2008 02:00 18,8 C 91 % 1013,4 hPa 0,0 l/m 1,5 km/h (1 Bft) NE 0,00 h 0,025 mm 0 W/m 17,3 C 18,8 C 2,4 km/h (1 Bft)
11/07/2008 03:00 18,7 C 91 % 1012,9 hPa 0,0 l/m 0,6 km/h (0 Bft) NE 0,00 h 0,025 mm 0 W/m 17,2 C 18,7 C 1,4 km/h (1 Bft)
11/07/2008 04:00 18,6 C 91 % 1013,0 hPa 0,0 l/m 3,8 km/h (1 Bft) NO 0,00 h 0,025 mm 0 W/m 17,1 C 18,6 C 5,6 km/h (1 Bft)
11/07/2008 05:00 18,1 C 91 % 1013,0 hPa 0,0 l/m 1,1 km/h (0 Bft) NO 0,00 h 0,025 mm 0 W/m 16,6 C 18,1 C 2,2 km/h (1 Bft)
11/07/2008 06:00 18,7 C 91 % 1013,1 hPa 0,0 l/m 0,5 km/h (0 Bft) NO 0,00 h 0,000 mm 17 W/m 17,2 C 18,7 C 1,1 km/h (1 Bft)
11/07/2008 07:00 19,7 C 92 % 1013,1 hPa 0,0 l/m 0,5 km/h (0 Bft) NO 0,28 h 0,025 mm 108 W/m 18,3 C 19,7 C 1,3 km/h (1 Bft)
11/07/2008 08:00 21,7 C 85 % 1013,2 hPa 0,0 l/m 2,0 km/h (1 Bft) E-NE 0,22 h 0,076 mm 177 W/m 19,0 C 21,7 C 3,9 km/h (1 Bft)
11/07/2008 09:00 23,0 C 78 % 1013,4 hPa 0,0 l/m 2,5 km/h (1 Bft) E 0,63 h 0,127 mm 438 W/m 18,9 C 23,0 C 4,7 km/h (1 Bft)
11/07/2008 10:00 23,6 C 76 % 1013,6 hPa 0,0 l/m 3,8 km/h (1 Bft) E 0,07 h 0,279 mm 269 W/m 19,1 C 23,6 C 6,0 km/h (2 Bft)
11/07/2008 11:00 25,6 C 71 % 1013,5 hPa 0,0 l/m 5,9 km/h (2 Bft) E 0,77 h 0,203 mm 683 W/m 19,8 C 25,6 C 8,6 km/h (2 Bft)
11/07/2008 12:00 26,5 C 68 % 1013,2 hPa 0,0 l/m 8,9 km/h (2 Bft) E 1,00 h 0,457 mm 843 W/m 20,0 C 26,5 C 13,0 km/h (3 Bft)
11/07/2008 13:00 26,6 C 68 % 1013,1 hPa 0,0 l/m 9,9 km/h (2 Bft) E 1,00 h 0,584 mm 869 W/m 20,1 C 26,6 C 14,3 km/h (3 Bft)
11/07/2008 14:00 26,8 C 66 % 1012,9 hPa 0,0 l/m 10,5 km/h (2 Bft) E 1,00 h 0,610 mm 849 W/m 20,0 C 26,8 C 16,0 km/h (3 Bft)
11/07/2008 15:00 26,2 C 70 % 1012,8 hPa 0,0 l/m 9,7 km/h (2 Bft) E 1,00 h 0,610 mm 785 W/m 20,2 C 26,2 C 14,7 km/h (3 Bft)
11/07/2008 16:00 26,5 C 69 % 1012,5 hPa 0,0 l/m 9,5 km/h (2 Bft) E 0,97 h 0,559 mm 649 W/m 20,2 C 26,5 C 13,6 km/h (3 Bft)
11/07/2008 17:00 26,0 C 67 % 1012,2 hPa 0,0 l/m 8,1 km/h (2 Bft) E 1,00 h 0,457 mm 522 W/m 19,5 C 26,0 C 12,1 km/h (2 Bft)
11/07/2008 18:00 25,2 C 69 % 1011,6 hPa 0,0 l/m 5,5 km/h (1 Bft) E 1,00 h 0,381 mm 355 W/m 19,0 C 25,2 C 8,3 km/h (2 Bft)
11/07/2008 19:00 24,6 C 71 % 1011,2 hPa 0,0 l/m 2,9 km/h (1 Bft) E-SE 0,92 h 0,254 mm 182 W/m 19,0 C 24,6 C 5,1 km/h (1 Bft)
11/07/2008 20:00 23,0 C 76 % 1010,9 hPa 0,0 l/m 0,4 km/h (0 Bft) SE 0,03 h 0,127 mm 36 W/m 18,6 C 23,0 C 1,4 km/h (1 Bft)
11/07/2008 21:00 21,4 C 81 % 1010,8 hPa 0,0 l/m 0,3 km/h (0 Bft) SE 0,03 h 0,025 mm 7 W/m 18,0 C 21,4 C 1,0 km/h (0 Bft)
11/07/2008 22:00 20,7 C 84 % 1011,2 hPa 0,0 l/m 0,0 km/h (0 Bft) N 0,00 h 0,000 mm 0 W/m 18,0 C 20,7 C 0,0 km/h (0 Bft)
11/07/2008 23:00 20,1 C 87 % 1011,1 hPa 0,0 l/m 0,4 km/h (0 Bft) SE 0,00 h 0,025 mm 0 W/m 17,8 C 20,1 C 0,9 km/h (0 Bft)
12/07/2008 00:00 19,5 C 88 % 1010,6 hPa 0,0 l/m 0,4 km/h (0 Bft) E-SE 0,00 h 0,025 mm 0 W/m 17,5 C 19,5 C 0,9 km/h (0 Bft)
12/07/2008 01:00 19,6 C 90 % 1010,4 hPa 0,0 l/m 2,3 km/h (1 Bft) SO 0,00 h 0,025 mm 0 W/m 17,8 C 19,6 C 3,4 km/h (1 Bft)
12/07/2008 02:00 19,4 C 91 % 1010,2 hPa 0,0 l/m 1,3 km/h (1 Bft) SO 0,00 h 0,025 mm 0 W/m 17,9 C 19,4 C 1,8 km/h (1 Bft)
12/07/2008 03:00 19,0 C 91 % 1009,8 hPa 0,0 l/m 0,2 km/h (0 Bft) SO 0,00 h 0,025 mm 0 W/m 17,5 C 19,0 C 0,6 km/h (0 Bft)
12/07/2008 04:00 18,8 C 92 % 1009,6 hPa 0,0 l/m 1,0 km/h (0 Bft) SO 0,00 h 0,025 mm 0 W/m 17,4 C 18,8 C 1,7 km/h (1 Bft)
12/07/2008 05:00 19,4 C 92 % 1009,6 hPa 0,0 l/m 0,9 km/h (0 Bft) NO 0,00 h 0,025 mm 0 W/m 18,0 C 19,4 C 1,5 km/h (1 Bft)
12/07/2008 06:00 19,0 C 92 % 1009,8 hPa 0,0 l/m 4,5 km/h (1 Bft) O-NO 0,02 h 0,000 mm 28 W/m 17,7 C 19,0 C 6,6 km/h (2 Bft)
12/07/2008 07:00 19,2 C 92 % 1009,6 hPa 0,0 l/m 1,3 km/h (1 Bft) O 0,17 h 0,025 mm 87 W/m 17,8 C 19,2 C 2,2 km/h (1 Bft)
12/07/2008 08:00 21,8 C 82 % 1009,2 hPa 0,0 l/m 1,5 km/h (1 Bft) N-NE 1,00 h 0,051 mm 319 W/m 18,6 C 21,8 C 3,4 km/h (1 Bft)
12/07/2008 09:00 24,1 C 73 % 1009,0 hPa 0,0 l/m 3,9 km/h (1 Bft) S-SO 1,00 h 0,203 mm 485 W/m 18,8 C 24,1 C 6,9 km/h (2 Bft)
12/07/2008 10:00 25,6 C 68 % 1009,1 hPa 0,0 l/m 8,3 km/h (2 Bft) E 1,00 h 0,330 mm 628 W/m 19,3 C 25,6 C 12,1 km/h (2 Bft)
12/07/2008 11:00 26,1 C 68 % 1009,1 hPa 0,0 l/m 9,0 km/h (2 Bft) E 0,97 h 0,432 mm 741 W/m 19,8 C 26,1 C 13,6 km/h (3 Bft)
12/07/2008 12:00 26,8 C 68 % 1009,2 hPa 0,0 l/m 8,6 km/h (2 Bft) E 0,65 h 0,508 mm 726 W/m 20,4 C 26,8 C 14,2 km/h (3 Bft)
12/07/2008 13:00 27,1 C 62 % 1009,0 hPa 0,0 l/m 11,0 km/h (2 Bft) E 0,83 h 0,483 mm 766 W/m 19,2 C 27,1 C 16,5 km/h (3 Bft)
12/07/2008 14:00 27,2 C 61 % 1008,5 hPa 0,0 l/m 8,8 km/h (2 Bft) E 0,92 h 0,584 mm 848 W/m 18,9 C 27,2 C 14,1 km/h (3 Bft)
12/07/2008 15:00 27,6 C 60 % 1008,0 hPa 0,0 l/m 9,2 km/h (2 Bft) E 0,83 h 0,610 mm 729 W/m 19,0 C 27,6 C 13,9 km/h (3 Bft)
12/07/2008 16:00 27,2 C 62 % 1007,4 hPa 0,0 l/m 8,8 km/h (2 Bft) E 1,00 h 0,533 mm 673 W/m 19,3 C 27,2 C 12,7 km/h (3 Bft)
12/07/2008 17:00 26,5 C 63 % 1006,8 hPa 0,0 l/m 8,0 km/h (2 Bft) E 1,00 h 0,483 mm 523 W/m 19,0 C 26,5 C 11,6 km/h (2 Bft)
12/07/2008 18:00 26,4 C 64 % 1006,5 hPa 0,0 l/m 6,0 km/h (2 Bft) E 0,93 h 0,381 mm 336 W/m 18,9 C 26,4 C 9,2 km/h (2 Bft)
12/07/2008 19:00 24,1 C 64 % 1006,4 hPa 0,0 l/m 4,1 km/h (1 Bft) S-SE 0,00 h 0,254 mm 80 W/m 16,7 C 24,1 C 6,3 km/h (2 Bft)
12/07/2008 20:00 23,1 C 67 % 1006,7 hPa 0,0 l/m 4,1 km/h (1 Bft) O-SO 0,00 h 0,076 mm 36 W/m 16,6 C 23,1 C 5,9 km/h (2 Bft)
12/07/2008 21:00 22,3 C 73 % 1006,5 hPa 0,0 l/m 2,7 km/h (1 Bft) E-SE 0,00 h 0,051 mm 5 W/m 17,2 C 22,3 C 4,5 km/h (1 Bft)
12/07/2008 22:00 21,5 C 78 % 1006,3 hPa 0,0 l/m 0,4 km/h (0 Bft) NE 0,00 h 0,025 mm 0 W/m 17,4 C 21,5 C 0,9 km/h (0 Bft)
12/07/2008 23:00 20,9 C 81 % 1006,2 hPa 0,0 l/m 1,2 km/h (1 Bft) NE 0,00 h 0,025 mm 0 W/m 17,5 C 20,9 C 1,6 km/h (1 Bft)
13/07/2008 00:00 20,8 C 82 % 1005,9 hPa 0,0 l/m 3,9 km/h (1 Bft) O 0,00 h 0,025 mm 0 W/m 17,6 C 20,8 C 5,3 km/h (1 Bft)
13/07/2008 01:00 20,6 C 81 % 1006,0 hPa 0,0 l/m 0,8 km/h (0 Bft) O 0,00 h 0,025 mm 0 W/m 17,2 C 20,6 C 1,3 km/h (1 Bft)
13/07/2008 02:00 20,4 C 80 % 1006,5 hPa 0,0 l/m 0,2 km/h (0 Bft) O 0,00 h 0,025 mm 0 W/m 16,9 C 20,4 C 0,7 km/h (0 Bft)
13/07/2008 03:00 20,4 C 81 % 1006,5 hPa 0,0 l/m 1,5 km/h (1 Bft) O 0,00 h 0,025 mm 0 W/m 17,0 C 20,4 C 2,4 km/h (1 Bft)
13/07/2008 04:00 20,4 C 80 % 1006,1 hPa 0,0 l/m 3,2 km/h (1 Bft) O-NO 0,00 h 0,025 mm 0 W/m 16,9 C 20,4 C 4,5 km/h (1 Bft)
13/07/2008 05:00 20,0 C 82 % 1005,7 hPa 0,0 l/m 3,7 km/h (1 Bft) O 0,00 h 0,025 mm 0 W/m 16,8 C 20,0 C 5,9 km/h (2 Bft)
13/07/2008 06:00 19,6 C 83 % 1005,1 hPa 0,0 l/m 1,7 km/h (1 Bft) N-NE 0,00 h 0,025 mm 14 W/m 16,7 C 19,6 C 3,1 km/h (1 Bft)
13/07/2008 07:00 20,2 C 84 % 1004,8 hPa 0,0 l/m 5,2 km/h (1 Bft) S-SO 0,22 h 0,025 mm 80 W/m 17,4 C 20,2 C 6,8 km/h (2 Bft)
13/07/2008 08:00 22,4 C 76 % 1004,9 hPa 0,0 l/m 6,5 km/h (2 Bft) SO 1,00 h 0,076 mm 327 W/m 18,0 C 22,4 C 9,7 km/h (2 Bft)
13/07/2008 09:00 24,3 C 59 % 1004,9 hPa 0,0 l/m 12,1 km/h (2 Bft) SO 1,00 h 0,229 mm 509 W/m 15,7 C 24,3 C 16,5 km/h (3 Bft)
13/07/2008 10:00 25,7 C 48 % 1004,9 hPa 0,0 l/m 13,8 km/h (3 Bft) S-SO 1,00 h 0,406 mm 665 W/m 13,9 C 25,7 C 19,0 km/h (3 Bft)
13/07/2008 11:00 26,9 C 49 % 1004,8 hPa 0,0 l/m 17,1 km/h (3 Bft) SO 1,00 h 0,533 mm 784 W/m 15,3 C 26,9 C 23,0 km/h (4 Bft)
13/07/2008 12:00 28,2 C 46 % 1004,4 hPa 0,0 l/m 21,6 km/h (4 Bft) SO 1,00 h 0,660 mm 860 W/m 15,4 C 28,2 C 28,8 km/h (5 Bft)
13/07/2008 13:00 29,6 C 38 % 1004,1 hPa 0,0 l/m 23,6 km/h (4 Bft) S-SO 1,00 h 0,762 mm 897 W/m 13,8 C 29,6 C 31,3 km/h (5 Bft)
13/07/2008 14:00 30,4 C 32 % 1003,6 hPa 0,0 l/m 26,3 km/h (4 Bft) SO 1,00 h 0,838 mm 878 W/m 11,8 C 30,4 C 35,4 km/h (5 Bft)
13/07/2008 15:00 30,3 C 31 % 1003,2 hPa 0,0 l/m 32,2 km/h (5 Bft) SO 1,00 h 0,889 mm 813 W/m 11,2 C 30,3 C 42,5 km/h (6 Bft)
13/07/2008 16:00 30,1 C 32 % 1003,1 hPa 0,0 l/m 33,7 km/h (5 Bft) SO 1,00 h 0,940 mm 706 W/m 11,4 C 30,1 C 44,2 km/h (6 Bft)
13/07/2008 17:00 29,8 C 30 % 1002,9 hPa 0,0 l/m 33,1 km/h (5 Bft) SO 1,00 h 0,864 mm 557 W/m 10,6 C 29,8 C 42,6 km/h (6 Bft)
13/07/2008 18:00 29,0 C 30 % 1002,9 hPa 0,0 l/m 32,8 km/h (5 Bft) SO 1,00 h 0,762 mm 387 W/m 9,8 C 29,0 C 43,5 km/h (6 Bft)
13/07/2008 19:00 27,7 C 33 % 1003,2 hPa 0,0 l/m 30,6 km/h (5 Bft) SO 1,00 h 0,660 mm 216 W/m 10,1 C 27,7 C 40,6 km/h (6 Bft)
13/07/2008 20:00 25,5 C 38 % 1003,4 hPa 0,0 l/m 28,8 km/h (5 Bft) SO 0,28 h 0,483 mm 42 W/m 10,1 C 25,5 C 37,3 km/h (5 Bft)
13/07/2008 21:00 23,7 C 41 % 1003,9 hPa 0,0 l/m 21,1 km/h (4 Bft) SO 0,02 h 0,330 mm 6 W/m 9,6 C 23,7 C 26,9 km/h (4 Bft)
13/07/2008 22:00 22,6 C 41 % 1004,4 hPa 0,0 l/m 17,2 km/h (3 Bft) SO 0,00 h 0,203 mm 0 W/m 8,6 C 22,6 C 23,1 km/h (4 Bft)
13/07/2008 23:00 22,3 C 39 % 1004,7 hPa 0,0 l/m 19,4 km/h (3 Bft) O-SO 0,00 h 0,178 mm 0 W/m 7,5 C 22,3 C 27,9 km/h (4 Bft)
Min-Date _ 10/07/08 08/07/08 13/07/08 - 07/07/08 - - - - 08/07/08 10/07/08 07/07/08
_ Min-Heure 06:28 10:11 18:15 - 00:12 - - - - 05:27 06:28 00:13
Minimum _ 17,1 C 25 % 1002,8 hPa - 0,0 km/h (0 Bft) - - - - 2,9 C 17,1 C 0,0 km/h (0 Bft)
Max-Date _ 13/07/08 07/07/08 10/07/08 07/07/08 13/07/08 - 07/07/08 13/07/08 09/07/08 12/07/08 13/07/08 13/07/08
_ Max-Heure 14:21 03:56 08:15 07:01 17:33 - 06:09 16:00 13:19 12:19 14:21 17:33
Maximum _ 30,7 C 93 % 1014,8 hPa 2,2 l/m 49,9 km/h
SO (6 Bft)
- 0,02 h 0,940 mm 1255 W/m 21,3 C 30,7 C 57,9 km/h
SO (7 Bft)
Moyenne _ 23,0 C 68 % 1009,9 hPa #2,4 l/m 7,9 km/h (2 Bft) E #73:55 h #43,361 mm 433 W/m 15,9 C 23,0 C 11,4 km/h (2 Bft)
Roquefort les pins